Time;durP1;ratioP1;P1;durP2;ratioP2;P2;SDS_P1;SDS_P2;PMS_P1;PMS_P2;Temp;Humidity;BMP_temperature;BMP_pressure;BME280_temperature;BME280_humidity;BME280_pressure;Samples;Min_cycle;Max_cycle;Signal;HPM_P1;HPM_P2
2023/12/02 00:05:01;;;;;;;197.77;73.33;;;;;;;-4.27;100.00;99871.95;4708589;60;1142868;-73
2023/12/02 00:10:07;;;;;;;224.27;75.77;;;;;;;-4.19;100.00;99872.61;4726243;61;1142718;-74
2023/12/02 00:15:13;;;;;;;212.70;72.97;;;;;;;-4.15;100.00;99884.55;4686306;60;1142785;-74
2023/12/02 00:20:18;;;;;;;217.20;78.42;;;;;;;-4.18;100.00;99873.02;4737262;60;1143195;-74
2023/12/02 00:25:24;;;;;;;170.17;66.00;;;;;;;-4.25;100.00;99866.31;4668645;60;1143000;-73
2023/12/02 00:30:29;;;;;;;191.30;63.50;;;;;;;-4.50;100.00;99869.17;4639820;59;1143034;-74
2023/12/02 00:35:35;;;;;;;172.13;60.78;;;;;;;-4.73;100.00;99874.48;4783944;58;1143054;-74
2023/12/02 00:40:40;;;;;;;201.97;69.23;;;;;;;-4.87;100.00;99871.41;4802586;57;1143053;-74
2023/12/02 00:45:46;;;;;;;179.67;65.00;;;;;;;-5.07;100.00;99877.08;4784264;58;1142964;-73
2023/12/02 00:50:51;;;;;;;203.17;68.37;;;;;;;-5.17;100.00;99874.30;4783214;59;1143172;-73
2023/12/02 00:55:57;;;;;;;165.47;60.93;;;;;;;-5.09;100.00;99867.25;4856784;59;1142900;-74
2023/12/02 01:01:03;;;;;;;176.97;63.00;;;;;;;-4.98;100.00;99870.40;4862974;59;1142858;-74
2023/12/02 01:06:09;;;;;;;181.50;62.03;;;;;;;-4.97;100.00;99869.95;4836521;59;1143232;-74
2023/12/02 01:11:14;;;;;;;175.13;64.87;;;;;;;-4.86;100.00;99871.81;4814474;59;1143539;-74
2023/12/02 01:16:20;;;;;;;177.20;64.80;;;;;;;-4.83;100.00;99861.42;4880420;59;1143052;-73
2023/12/02 01:21:25;;;;;;;153.97;58.80;;;;;;;-4.66;100.00;99855.83;4862009;59;1143291;-73
2023/12/02 01:26:31;;;;;;;156.50;57.60;;;;;;;-4.52;100.00;99850.30;4862643;58;1142801;-74
2023/12/02 01:31:36;;;;;;;155.80;58.03;;;;;;;-4.60;100.00;99867.30;4882587;57;1152680;-74
2023/12/02 01:36:42;;;;;;;164.93;60.43;;;;;;;-4.82;100.00;99846.36;4863172;57;1142998;-73
2023/12/02 01:41:48;;;;;;;145.20;54.47;;;;;;;-4.82;100.00;99846.36;4863344;59;1143267;-74
2023/12/02 01:46:53;;;;;;;154.63;54.45;;;;;;;-4.83;100.00;99847.23;4879121;59;1143029;-73
2023/12/02 01:51:59;;;;;;;150.50;55.23;;;;;;;-5.01;100.00;99859.30;4851273;59;1142887;-73
2023/12/02 01:57:05;;;;;;;135.00;51.13;;;;;;;-5.17;100.00;99861.86;4886229;59;1143170;-73
2023/12/02 02:02:11;;;;;;;123.07;47.77;;;;;;;-5.35;100.00;99865.27;4889307;59;1143047;-73
2023/12/02 02:07:18;;;;;;;127.73;47.87;;;;;;;-5.59;100.00;99874.86;4909569;59;1143098;-74
2023/12/02 02:12:23;;;;;;;134.15;51.35;;;;;;;-5.75;100.00;99882.08;4796802;59;1143390;-73
2023/12/02 02:17:30;;;;;;;125.00;47.62;;;;;;;-5.84;100.00;99880.16;4806793;58;1142712;-75
2023/12/02 02:22:36;;;;;;;137.23;48.67;;;;;;;-5.87;100.00;99876.35;4888893;57;1143045;-73
2023/12/02 02:27:41;;;;;;;140.83;52.43;;;;;;;-5.88;100.00;99882.41;4891306;57;1143068;-74
2023/12/02 02:32:47;;;;;;;133.05;51.08;;;;;;;-5.83;100.00;99887.00;4814659;59;1142767;-74
2023/12/02 02:37:52;;;;;;;125.17;51.23;;;;;;;-5.76;100.00;99879.09;4832609;58;1142926;-73
2023/12/02 02:42:58;;;;;;;150.27;54.63;;;;;;;-5.71;100.00;99866.98;4813905;58;1143039;-74
2023/12/02 02:48:03;;;;;;;111.90;43.70;;;;;;;-5.64;100.00;99879.27;4813592;59;1143061;-74
2023/12/02 02:53:09;;;;;;;127.47;44.93;;;;;;;-5.62;100.00;99875.37;4890217;59;1143005;-75
2023/12/02 02:58:14;;;;;;;132.97;50.98;;;;;;;-5.64;100.00;99867.67;4903358;59;1143048;-73
2023/12/02 03:03:20;;;;;;;127.13;46.87;;;;;;;-5.68;100.00;99879.80;4879147;59;1142904;-74
2023/12/02 03:08:25;;;;;;;115.20;43.42;;;;;;;-5.69;100.00;99871.66;4880620;59;1143167;-74
2023/12/02 03:13:31;;;;;;;129.80;48.87;;;;;;;-5.69;100.00;99884.98;4871317;59;1143180;-75
2023/12/02 03:18:36;;;;;;;108.52;45.58;;;;;;;-5.69;100.00;99874.67;4786413;58;1142919;-74
2023/12/02 03:23:42;;;;;;;124.97;42.13;;;;;;;-5.65;100.00;99871.13;4785755;59;1143029;-74
2023/12/02 03:28:48;;;;;;;101.92;37.55;;;;;;;-5.62;100.00;99859.91;4805081;59;1142869;-74
2023/12/02 03:33:53;;;;;;;106.20;39.97;;;;;;;-5.56;100.00;99867.08;4786686;59;1143070;-74
2023/12/02 03:38:59;;;;;;;104.23;41.37;;;;;;;-5.53;100.00;99846.84;4870136;58;1142968;-74
2023/12/02 03:44:05;;;;;;;104.90;43.33;;;;;;;-5.46;100.00;99862.11;4942419;58;1143006;-74
2023/12/02 03:49:10;;;;;;;103.70;39.27;;;;;;;-5.34;100.00;99850.22;4856836;59;1142959;-74
2023/12/02 03:54:16;;;;;;;91.10;38.10;;;;;;;-5.23;100.00;99831.09;4879196;59;1143160;-74
2023/12/02 03:59:21;;;;;;;94.53;34.17;;;;;;;-5.19;100.00;99830.95;4892870;59;1141059;-74
2023/12/02 04:04:27;;;;;;;92.93;35.10;;;;;;;-5.18;100.00;99823.63;4865130;59;1141061;-74
2023/12/02 04:09:33;;;;;;;114.37;41.73;;;;;;;-5.16;100.00;99819.73;4866771;59;1141037;-74
2023/12/02 04:14:38;;;;;;;118.70;43.20;;;;;;;-5.14;100.00;99823.12;4816233;58;1143652;-74
2023/12/02 04:19:44;;;;;;;131.30;50.45;;;;;;;-5.03;100.00;99823.69;4859104;59;1143089;-73
2023/12/02 04:24:49;;;;;;;135.23;49.60;;;;;;;-4.99;100.00;99830.47;4818417;59;1143943;-74
2023/12/02 04:29:55;;;;;;;120.00;45.00;;;;;;;-4.86;100.00;99826.69;4826155;58;1142767;-74
2023/12/02 04:35:00;;;;;;;112.10;44.00;;;;;;;-4.66;100.00;99833.46;4851169;58;1143280;-75
2023/12/02 04:40:13;;;;;;;112.80;44.30;;;;;;;-4.53;100.00;99834.41;4913940;58;1142991;-73
2023/12/02 04:45:15;;;;;;;125.43;47.43;;;;;;;-4.40;100.00;99849.96;4871867;58;1142949;-74
2023/12/02 04:50:20;;;;;;;137.03;50.97;;;;;;;-4.40;100.00;99849.52;4882271;59;1143149;-73
2023/12/02 04:55:26;;;;;;;124.27;45.07;;;;;;;-4.37;100.00;99843.43;4858509;59;1143291;-73
2023/12/02 05:00:32;;;;;;;118.80;43.87;;;;;;;-4.42;100.00;99839.67;4887781;59;1143210;-73
2023/12/02 05:05:37;;;;;;;118.40;43.80;;;;;;;-4.52;100.00;99830.95;4913224;59;1143002;-74
2023/12/02 05:10:43;;;;;;;108.87;45.67;;;;;;;-4.41;100.00;99819.88;4884688;58;1142901;-74
2023/12/02 05:15:49;;;;;;;165.66;56.62;;;;;;;-4.25;100.00;99818.55;4909442;58;1143078;-74
2023/12/02 05:20:54;;;;;;;180.67;60.77;;;;;;;-4.16;100.00;99810.56;4910012;59;1143166;-73
2023/12/02 05:26:00;;;;;;;149.73;57.30;;;;;;;-4.07;100.00;99801.69;4830082;59;1143101;-73
2023/12/02 05:31:07;;;;;;;132.03;49.77;;;;;;;-4.11;100.00;99806.53;4850672;58;1142913;-73
2023/12/02 05:36:13;;;;;;;111.17;40.37;;;;;;;-4.19;100.00;99804.20;4895122;58;1142875;-73
2023/12/02 05:41:19;;;;;;;223.73;100.57;;;;;;;-4.32;100.00;99797.70;4914358;58;1142923;-73
2023/12/02 05:46:24;;;;;;;126.70;45.43;;;;;;;-4.42;100.00;99808.70;4894894;57;1145059;-74
2023/12/02 05:51:30;;;;;;;125.13;48.07;;;;;;;-4.48;100.00;99785.67;4858098;58;1142908;-70
2023/12/02 05:56:35;;;;;;;114.93;40.77;;;;;;;-4.49;100.00;99781.84;4878953;59;1143066;-71
2023/12/02 06:01:41;;;;;;;107.98;42.12;;;;;;;-4.48;100.00;99808.89;4894753;59;1143298;-71
2023/12/02 06:06:48;;;;;;;112.80;43.20;;;;;;;-4.50;100.00;99821.44;4804537;58;1143285;-70
2023/12/02 06:11:53;;;;;;;109.48;39.05;;;;;;;-4.51;100.00;99814.58;4844493;58;1143069;-71
2023/12/02 06:16:59;;;;;;;110.97;38.53;;;;;;;-4.48;100.00;99818.37;4798727;59;1143135;-70
2023/12/02 06:22:05;;;;;;;119.75;44.55;;;;;;;-4.48;100.00;99827.41;4881248;59;1143000;-70
2023/12/02 06:27:10;;;;;;;84.63;33.07;;;;;;;-4.50;100.00;99839.50;4861334;59;1143170;-70
2023/12/02 06:32:16;;;;;;;95.63;37.60;;;;;;;-4.51;100.00;99842.96;4877664;59;1140883;-71
2023/12/02 06:37:21;;;;;;;101.77;37.77;;;;;;;-4.54;100.00;99849.05;4849117;58;1141133;-69
2023/12/02 06:42:27;;;;;;;104.27;40.67;;;;;;;-4.56;100.00;99848.23;4849969;59;1143127;-71
2023/12/02 06:47:32;;;;;;;103.17;38.40;;;;;;;-4.56;100.00;99848.23;4816209;59;1143228;-70
2023/12/02 06:52:38;;;;;;;99.70;35.70;;;;;;;-4.54;100.00;99862.39;4863026;59;1142985;-70
2023/12/02 06:57:43;;;;;;;163.12;54.42;;;;;;;-4.54;100.00;99880.45;4856092;58;1140784;-70
2023/12/02 07:02:49;;;;;;;114.20;40.27;;;;;;;-4.53;100.00;99886.87;4909259;58;1143453;-71
2023/12/02 07:07:55;;;;;;;121.43;39.80;;;;;;;-4.51;100.00;99892.84;4853929;59;1143259;-69
2023/12/02 07:13:00;;;;;;;95.38;34.70;;;;;;;-4.45;100.00;99890.55;4850199;59;1143212;-70
2023/12/02 07:18:06;;;;;;;88.43;35.27;;;;;;;-4.42;100.00;99893.03;4870059;59;1141076;-69
2023/12/02 07:23:11;;;;;;;85.00;31.53;;;;;;;-4.40;100.00;99888.67;4874786;58;1140809;-70
2023/12/02 07:28:17;;;;;;;89.75;33.38;;;;;;;-4.37;100.00;99883.44;4890688;58;1140852;-70
2023/12/02 07:33:24;;;;;;;84.90;33.53;;;;;;;-4.35;100.00;99887.67;4882414;57;1140777;-71
2023/12/02 07:38:30;;;;;;;86.45;31.27;;;;;;;-4.32;100.00;99889.33;4787447;59;1140881;-71
2023/12/02 07:43:36;;;;;;;79.35;28.00;;;;;;;-4.24;100.00;99887.37;4871674;59;1140838;-71
2023/12/02 07:48:41;;;;;;;94.20;36.63;;;;;;;-4.21;100.00;99884.70;4873591;59;1146217;-75
2023/12/02 07:53:47;;;;;;;76.10;29.83;;;;;;;-4.20;100.00;99894.59;4854858;59;1141041;-74
2023/12/02 07:58:54;;;;;;;138.75;48.33;;;;;;;-4.14;100.00;99884.11;4793106;59;1140765;-75
2023/12/02 08:04:01;;;;;;;150.20;42.33;;;;;;;-4.13;100.00;99882.78;4833178;59;1143482;-75
2023/12/02 08:09:09;;;;;;;128.30;41.43;;;;;;;-4.10;100.00;99888.27;4810376;59;1143187;-75
2023/12/02 08:14:15;;;;;;;118.73;41.77;;;;;;;-4.06;100.00;99893.77;4838285;58;1142842;-74
2023/12/02 08:19:21;;;;;;;145.40;45.70;;;;;;;-4.03;100.00;99899.70;4876985;58;1142849;-74
2023/12/02 08:24:26;;;;;;;161.73;52.13;;;;;;;-4.00;100.00;99906.52;4858986;58;1142867;-74
2023/12/02 08:29:32;;;;;;;125.77;41.90;;;;;;;-3.92;100.00;99907.98;4922523;58;1142980;-74
2023/12/02 08:34:37;;;;;;;161.50;62.80;;;;;;;-3.82;100.00;99907.73;4974577;56;1143077;-74
2023/12/02 08:39:44;;;;;;;113.03;43.92;;;;;;;-3.73;100.00;99920.38;4862291;58;1143105;-75
2023/12/02 08:44:49;;;;;;;104.53;38.20;;;;;;;-3.66;100.00;99921.42;4859831;57;1142696;-73
2023/12/02 08:49:54;;;;;;;113.05;49.93;;;;;;;-3.59;100.00;99928.56;4871508;59;1142980;-75
2023/12/02 08:55:00;;;;;;;121.80;49.30;;;;;;;-3.46;100.00;99932.92;4838390;58;1142841;-74
2023/12/02 09:00:07;;;;;;;131.03;56.10;;;;;;;-3.44;100.00;99941.03;4858781;58;1142803;-73
2023/12/02 09:05:15;;;;;;;101.63;40.13;;;;;;;-3.44;100.00;99946.20;4847939;58;1143227;-76
2023/12/02 09:10:23;;;;;;;93.80;38.67;;;;;;;-3.42;100.00;99951.33;4884576;58;1143136;-72
2023/12/02 09:15:44;;;;;;;100.80;33.47;;;;;;;-3.39;100.00;99958.56;4838076;59;1140790;-74
2023/12/02 09:20:53;;;;;;;92.13;36.03;;;;;;;-3.41;100.00;99964.66;4872119;59;1142944;-76
2023/12/02 09:26:03;;;;;;;114.70;39.73;;;;;;;-3.40;100.00;99944.38;4891115;59;1140737;-76
2023/12/02 09:31:10;;;;;;;104.70;39.63;;;;;;;-3.19;100.00;99919.14;4862868;59;1142869;-76
2023/12/02 09:36:35;;;;;;;108.15;38.80;;;;;;;-3.19;100.00;99919.14;4862605;59;1142884;-74
2023/12/02 09:41:49;;;;;;;92.27;37.70;;;;;;;-3.10;100.00;99928.38;4730600;60;1142809;-75
2023/12/02 09:47:02;;;;;;;104.50;39.15;;;;;;;-3.09;100.00;99922.31;4717733;59;1140971;-75
2023/12/02 09:52:53;;;;;;;136.12;51.83;;;;;;;-3.11;100.00;99924.94;4718321;59;1143202;-75
2023/12/02 09:58:27;;;;;;;99.92;34.38;;;;;;;-3.08;100.00;99917.53;4722935;59;1143018;-75
2023/12/02 10:04:01;;;;;;;95.80;36.80;;;;;;;-3.04;100.00;99925.13;4700258;59;1140844;-75
2023/12/02 10:09:37;;;;;;;101.73;38.00;;;;;;;-3.01;100.00;99917.72;4670286;60;1140961;-74
2023/12/02 10:14:45;;;;;;;92.78;35.20;;;;;;;-2.99;100.00;99915.48;4735472;59;1150620;-75
2023/12/02 10:19:57;;;;;;;101.33;37.07;;;;;;;-2.98;100.00;99910.72;4852851;58;1140894;-75
2023/12/02 10:25:07;;;;;;;103.32;39.13;;;;;;;-3.00;100.00;99914.24;4901411;58;1142814;-75
2023/12/02 10:30:17;;;;;;;343.85;160.67;;;;;;;-2.98;100.00;99906.84;4924278;58;1143288;-75
2023/12/02 10:35:31;;;;;;;138.77;50.33;;;;;;;-2.92;100.00;99903.22;4892181;58;1145040;-75
2023/12/02 10:40:36;;;;;;;216.80;82.47;;;;;;;-2.84;100.00;99905.94;4991583;58;1143122;-75
2023/12/02 10:45:43;;;;;;;191.30;69.67;;;;;;;-2.81;100.00;99905.00;4911621;58;1142955;-76
2023/12/02 10:50:50;;;;;;;133.03;48.83;;;;;;;-2.76;100.00;99903.56;4858983;58;1142832;-76
2023/12/02 10:56:00;;;;;;;122.17;42.50;;;;;;;-2.75;100.00;99902.66;4893260;59;1142984;-75
2023/12/02 11:01:10;;;;;;;174.50;81.77;;;;;;;-2.72;100.00;99905.97;4874531;59;1143306;-75
2023/12/02 11:06:32;;;;;;;131.63;54.07;;;;;;;-2.69;100.00;99901.15;4879279;58;1143290;-76
2023/12/02 11:12:04;;;;;;;108.17;37.38;;;;;;;-2.69;100.00;99893.38;4895408;58;1143197;-75
2023/12/02 11:17:32;;;;;;;114.25;41.98;;;;;;;-2.67;100.00;99898.06;4898278;58;1143242;-77
2023/12/02 11:23:09;;;;;;;137.80;45.83;;;;;;;-2.66;100.00;99891.55;4908980;59;1142772;-77
2023/12/02 11:28:28;;;;;;;109.37;42.97;;;;;;;-2.58;100.00;99891.27;4830766;58;1143214;-76
2023/12/02 11:34:03;;;;;;;118.70;42.20;;;;;;;-2.54;100.00;99907.95;4856574;57;1143038;-76
2023/12/02 11:39:19;;;;;;;121.93;39.37;;;;;;;-2.50;100.00;99914.72;4801707;59;1143174;-75
2023/12/02 11:44:41;;;;;;;108.80;39.63;;;;;;;-2.43;100.00;99898.96;4830723;59;1143444;-76
2023/12/02 11:50:18;;;;;;;109.22;38.35;;;;;;;-2.42;100.00;99894.18;4837494;57;1143039;-75
2023/12/02 11:56:01;;;;;;;82.50;27.17;;;;;;;-2.41;100.00;99904.94;4642828;60;1142918;-75
2023/12/02 12:01:17;;;;;;;52.90;18.17;;;;;;;-2.42;100.00;99903.24;4846027;58;1141294;-75
2023/12/02 12:06:43;;;;;;;96.07;36.40;;;;;;;-2.37;100.00;99897.47;4842492;58;1140953;-74
2023/12/02 12:11:51;;;;;;;70.57;25.67;;;;;;;-2.41;100.00;99913.55;4832518;58;1140536;-75
2023/12/02 12:16:57;;;;;;;58.23;22.77;;;;;;;-2.37;100.00;99924.66;4906924;58;1140973;-74
2023/12/02 12:22:02;;;;;;;66.17;22.93;;;;;;;-2.35;100.00;99930.18;4863252;59;1140791;-75
2023/12/02 12:27:10;;;;;;;67.25;22.32;;;;;;;-2.36;100.00;99927.64;4866870;59;1141158;-75
2023/12/02 12:32:16;;;;;;;84.60;31.33;;;;;;;-2.36;100.00;99935.41;4891109;58;1141138;-74
2023/12/02 12:37:26;;;;;;;59.43;23.43;;;;;;;-2.35;100.00;99940.55;4892047;58;1141104;-75
2023/12/02 12:42:32;;;;;;;65.67;24.47;;;;;;;-2.27;100.00;99915.20;4879169;57;1140788;-75
2023/12/02 12:47:37;;;;;;;85.87;28.97;;;;;;;-2.24;100.00;99904.75;4865931;57;1140592;-75
2023/12/02 12:52:53;;;;;;;67.80;28.53;;;;;;;-2.19;100.00;99896.83;4893164;58;1140738;-79
2023/12/02 12:58:09;;;;;;;75.30;28.52;;;;;;;-2.18;100.00;99896.77;4890197;58;1140943;-76
2023/12/02 13:03:41;;;;;;;80.37;25.27;;;;;;;-2.14;100.00;99897.04;4823934;59;1140805;-75
2023/12/02 13:09:06;;;;;;;76.30;23.37;;;;;;;-2.16;100.00;99911.81;4817149;60;1141081;-76
2023/12/02 13:14:14;;;;;;;84.27;32.37;;;;;;;-2.13;100.00;99906.95;4948583;57;1141096;-77
2023/12/02 13:19:20;;;;;;;84.33;29.23;;;;;;;-2.16;100.00;99900.61;4995269;58;1140727;-76
2023/12/02 13:24:26;;;;;;;76.27;28.63;;;;;;;-2.14;100.00;99897.52;4974967;58;1140883;-76
2023/12/02 13:29:31;;;;;;;65.57;24.47;;;;;;;-2.16;100.00;99883.77;4893364;59;1140665;-76
2023/12/02 13:34:52;;;;;;;71.33;28.03;;;;;;;-2.16;100.00;99883.77;4912129;58;1140793;-75
2023/12/02 13:39:58;;;;;;;62.37;26.40;;;;;;;-2.16;100.00;99893.69;4893917;58;1140898;-75
2023/12/02 13:45:12;;;;;;;59.93;22.57;;;;;;;-2.17;100.00;99894.58;4892773;59;1140678;-77
2023/12/02 13:50:19;;;;;;;56.37;21.50;;;;;;;-2.18;100.00;99887.70;4893225;59;1140783;-76
2023/12/02 13:55:50;;;;;;;83.97;36.00;;;;;;;-2.13;100.00;99875.41;4910898;59;1140883;-77
2023/12/02 14:01:21;;;;;;;91.80;32.47;;;;;;;-2.07;100.00;99868.33;4892611;59;1140786;-76
2023/12/02 14:06:40;;;;;;;71.70;24.98;;;;;;;-2.01;100.00;99861.64;4891937;59;1140846;-76
2023/12/02 14:12:07;;;;;;;65.63;23.77;;;;;;;-2.01;100.00;99875.45;4890122;59;1140907;-76
2023/12/02 14:17:36;;;;;;;64.63;22.50;;;;;;;-2.00;100.00;99874.99;4895176;59;1140929;-77
2023/12/02 14:23:18;;;;;;;86.23;30.20;;;;;;;-1.98;100.00;99875.30;4863750;59;1140914;-76
2023/12/02 14:29:06;;;;;;;71.13;25.97;;;;;;;-2.07;100.00;99871.77;4819666;58;1140850;-76
2023/12/02 14:34:47;;;;;;;64.20;22.30;;;;;;;-2.14;100.00;99900.11;4768723;58;1140931;-75
2023/12/02 14:40:12;;;;;;;64.62;23.83;;;;;;;-2.17;100.00;99905.39;4814208;58;1140696;-76
2023/12/02 14:45:18;;;;;;;63.95;21.00;;;;;;;-2.18;100.00;99921.38;4855012;58;1140727;-75
2023/12/02 14:50:25;;;;;;;77.20;24.93;;;;;;;-2.19;100.00;99913.21;4803111;59;1141004;-76
2023/12/02 14:55:31;;;;;;;46.07;16.13;;;;;;;-2.21;100.00;99907.23;4806985;59;1140896;-76
2023/12/02 15:00:43;;;;;;;59.87;21.03;;;;;;;-2.22;100.00;99917.65;4803658;59;1140546;-75
2023/12/02 15:05:49;;;;;;;55.40;19.32;;;;;;;-2.20;100.00;99936.58;4862171;58;1148110;-77
2023/12/02 15:10:55;;;;;;;80.97;36.00;;;;;;;-2.22;100.00;99935.78;4863117;58;1140982;-76
2023/12/02 15:16:00;;;;;;;57.08;20.50;;;;;;;-2.20;100.00;99938.72;4885992;58;1140750;-77
2023/12/02 15:21:08;;;;;;;79.00;27.83;;;;;;;-2.16;100.00;99945.48;4845040;59;1141083;-76
2023/12/02 15:26:19;;;;;;;81.37;24.93;;;;;;;-2.07;100.00;99951.23;4875655;58;1141120;-77
2023/12/02 15:31:28;;;;;;;69.25;23.10;;;;;;;-2.05;100.00;99972.31;4866718;58;1140811;-76
2023/12/02 15:36:33;;;;;;;75.50;28.70;;;;;;;-2.08;100.00;99978.04;4882477;59;1140803;-76
2023/12/02 15:41:42;;;;;;;76.20;26.60;;;;;;;-2.00;100.00;99991.59;4895955;58;1141034;-76
2023/12/02 15:46:49;;;;;;;75.63;27.27;;;;;;;-1.97;100.00;100000.53;4893957;59;1140805;-74
2023/12/02 15:51:55;;;;;;;66.82;20.82;;;;;;;-1.95;100.00;100003.47;4908405;59;1142765;-74
2023/12/02 15:57:01;;;;;;;67.30;25.50;;;;;;;-1.91;100.00;99998.58;4887968;58;1143075;-74
2023/12/02 16:02:06;;;;;;;55.77;22.07;;;;;;;-1.92;100.00;100009.00;4905631;58;1140916;-74
2023/12/02 16:07:14;;;;;;;64.63;25.17;;;;;;;-1.95;100.00;100009.95;4893022;59;1146216;-75
2023/12/02 16:12:20;;;;;;;74.13;27.27;;;;;;;-1.98;100.00;100020.41;4912196;58;1143046;-74
2023/12/02 16:17:26;;;;;;;70.93;25.57;;;;;;;-1.94;100.00;100019.41;4893084;59;1142958;-74
2023/12/02 16:22:32;;;;;;;46.40;15.80;;;;;;;-1.87;100.00;100035.61;4895123;58;1142998;-74
2023/12/02 16:27:38;;;;;;;64.27;22.20;;;;;;;-1.83;100.00;100035.88;4913700;58;1142968;-73
2023/12/02 16:32:46;;;;;;;58.33;21.37;;;;;;;-1.86;100.00;100028.23;4893512;59;1142891;-75
2023/12/02 16:37:53;;;;;;;47.73;18.77;;;;;;;-1.88;100.00;100033.47;4890643;58;1142963;-71
2023/12/02 16:42:59;;;;;;;57.75;22.98;;;;;;;-1.92;100.00;100046.12;4857104;59;1142942;-72
2023/12/02 16:48:06;;;;;;;51.70;20.27;;;;;;;-1.93;100.00;100048.31;4858790;58;1143344;-71
2023/12/02 16:53:18;;;;;;;60.77;22.77;;;;;;;-1.90;100.00;100049.96;4878122;58;1143334;-70
2023/12/02 16:58:25;;;;;;;64.57;22.17;;;;;;;-1.89;100.00;100046.03;4889151;58;1143284;-71
2023/12/02 17:03:40;;;;;;;52.63;20.90;;;;;;;-1.90;100.00;100037.00;4908071;59;1142788;-71
2023/12/02 17:08:49;;;;;;;56.80;22.77;;;;;;;-1.89;100.00;100042.14;4897774;59;1143092;-71
2023/12/02 17:14:09;;;;;;;61.00;21.10;;;;;;;-1.89;100.00;100030.92;4870810;59;1143086;-71
2023/12/02 17:19:15;;;;;;;48.73;19.40;;;;;;;-1.89;100.00;100034.81;4906641;58;1143059;-71
2023/12/02 17:24:27;;;;;;;53.30;18.53;;;;;;;-1.86;100.00;100038.60;4890652;58;1143295;-75
2023/12/02 17:29:35;;;;;;;56.47;21.47;;;;;;;-1.85;100.00;100032.07;4900816;58;1142944;-75
2023/12/02 17:34:40;;;;;;;59.30;19.50;;;;;;;-1.84;100.00;100032.92;4915586;58;1142741;-77
2023/12/02 17:39:47;;;;;;;67.56;22.94;;;;;;;-1.84;100.00;100040.70;4912581;59;1143036;-76
2023/12/02 17:44:53;;;;;;;70.60;23.38;;;;;;;-1.81;100.00;100040.56;4879582;58;1143228;-74
2023/12/02 17:50:00;;;;;;;59.67;20.45;;;;;;;-1.81;100.00;100046.59;4907006;58;1143317;-75
2023/12/02 17:55:06;;;;;;;64.03;20.13;;;;;;;-1.79;100.00;100053.87;4896731;58;1142884;-73
2023/12/02 18:00:13;;;;;;;41.57;16.50;;;;;;;-1.73;100.00;100053.27;4892432;58;1142943;-75
2023/12/02 18:05:18;;;;;;;55.75;20.02;;;;;;;-1.69;100.00;100055.72;4850834;59;1143056;-75
2023/12/02 18:10:24;;;;;;;54.23;18.80;;;;;;;-1.69;100.00;100058.75;4906983;58;1142796;-77
2023/12/02 18:15:32;;;;;;;50.80;19.23;;;;;;;-1.68;100.00;100059.16;4890843;58;1142848;-70
2023/12/02 18:20:37;;;;;;;53.90;20.27;;;;;;;-1.70;100.00;100054.02;4892811;58;1142942;-69
2023/12/02 18:25:43;;;;;;;61.27;21.93;;;;;;;-1.65;100.00;100049.95;4899639;58;1143093;-70
2023/12/02 18:30:49;;;;;;;45.87;18.33;;;;;;;-1.63;100.00;100052.89;4897372;57;1143129;-70
2023/12/02 18:35:54;;;;;;;47.67;15.87;;;;;;;-1.59;100.00;100059.67;4894041;59;1143106;-75
2023/12/02 18:41:00;;;;;;;76.50;25.27;;;;;;;-1.54;100.00;100067.29;4912977;59;1142868;-70
2023/12/02 18:46:06;;;;;;;65.65;24.02;;;;;;;-1.53;100.00;100070.28;4892660;59;1143155;-71
2023/12/02 18:51:11;;;;;;;104.60;45.43;;;;;;;-1.48;100.00;100081.31;4893168;58;1142934;-71
2023/12/02 18:56:17;;;;;;;95.83;31.77;;;;;;;-1.45;100.00;100083.81;4893941;59;1145239;-69
2023/12/02 19:01:23;;;;;;;100.27;34.00;;;;;;;-1.42;100.00;100079.81;4913288;59;1142977;-71
2023/12/02 19:06:29;;;;;;;109.40;37.93;;;;;;;-1.39;100.00;100077.57;4883050;59;1145109;-69
2023/12/02 19:11:35;;;;;;;79.40;28.70;;;;;;;-1.38;100.00;100083.16;4856835;58;1144899;-71
2023/12/02 19:16:40;;;;;;;84.93;28.37;;;;;;;-1.37;100.00;100083.52;4879972;58;1142740;-70
2023/12/02 19:21:46;;;;;;;71.57;26.40;;;;;;;-1.37;100.00;100092.59;4855151;58;1142875;-71
2023/12/02 19:26:52;;;;;;;76.57;26.67;;;;;;;-1.36;100.00;100092.55;4940868;58;1142932;-69
2023/12/02 19:31:58;;;;;;;67.17;25.90;;;;;;;-1.33;100.00;100101.97;4872998;58;1142822;-71
2023/12/02 19:37:04;;;;;;;65.20;23.67;;;;;;;-1.33;100.00;100104.56;4886976;58;1143037;-69
2023/12/02 19:42:10;;;;;;;67.53;25.43;;;;;;;-1.31;100.00;100097.13;4893024;58;1142812;-67
2023/12/02 19:47:16;;;;;;;69.27;27.63;;;;;;;-1.29;100.00;100104.41;4894138;58;1143036;-68
2023/12/02 19:52:22;;;;;;;63.83;23.43;;;;;;;-1.30;100.00;100117.44;4984233;58;1142769;-78
2023/12/02 19:57:28;;;;;;;52.33;23.37;;;;;;;-1.31;100.00;100114.44;4973625;58;1143096;-76
2023/12/02 20:02:34;;;;;;;60.73;20.47;;;;;;;-1.28;100.00;100121.67;4903474;58;1143042;-75
2023/12/02 20:07:40;;;;;;;53.83;19.60;;;;;;;-1.26;100.00;100123.77;4913363;59;1142842;-77
2023/12/02 20:12:46;;;;;;;64.23;24.70;;;;;;;-1.24;100.00;100134.94;4893353;58;1142994;-77
2023/12/02 20:17:51;;;;;;;65.60;22.87;;;;;;;-1.25;100.00;100127.20;4894436;59;1143224;-76
2023/12/02 20:22:57;;;;;;;83.03;27.02;;;;;;;-1.24;100.00;100136.23;4919052;58;1143015;-76
2023/12/02 20:28:03;;;;;;;69.75;24.30;;;;;;;-1.23;100.00;100138.38;4872139;58;1142848;-78
2023/12/02 20:33:08;;;;;;;61.20;23.63;;;;;;;-1.23;100.00;100137.08;4862769;58;1142879;-78
2023/12/02 20:38:14;;;;;;;78.60;28.20;;;;;;;-1.23;100.00;100143.57;4896857;58;1143060;-78
2023/12/02 20:43:20;;;;;;;54.40;22.37;;;;;;;-1.24;100.00;100154.39;4941749;58;1143428;-79
2023/12/02 20:48:25;;;;;;;43.43;17.17;;;;;;;-1.27;100.00;100157.09;4893021;58;1143119;-79
2023/12/02 20:53:31;;;;;;;56.23;23.03;;;;;;;-1.27;100.00;100159.69;4891126;59;1143018;-78
2023/12/02 20:58:37;;;;;;;59.83;24.93;;;;;;;-1.30;100.00;100164.12;4867664;58;1143091;-72
2023/12/02 21:03:43;;;;;;;75.78;28.83;;;;;;;-1.36;100.00;100163.88;4870602;59;1142831;-79
2023/12/02 21:08:49;;;;;;;67.93;23.00;;;;;;;-1.44;100.00;100175.83;4894394;59;1142926;-78
2023/12/02 21:13:55;;;;;;;56.37;19.60;;;;;;;-1.54;100.00;100182.23;4914380;59;1142744;-74
2023/12/02 21:19:00;;;;;;;66.73;21.83;;;;;;;-1.64;100.00;100179.98;4894944;59;1142998;-75
2023/12/02 21:24:07;;;;;;;83.33;28.55;;;;;;;-1.75;100.00;100189.41;4894817;59;1143023;-76
2023/12/02 21:29:13;;;;;;;75.33;24.27;;;;;;;-1.83;100.00;100194.83;4894935;59;1143018;-75
2023/12/02 21:34:19;;;;;;;71.50;25.90;;;;;;;-1.86;100.00;100202.73;4914071;59;1143151;-75
2023/12/02 21:39:25;;;;;;;81.23;26.83;;;;;;;-1.90;100.00;100206.30;4938735;58;1143010;-76
2023/12/02 21:44:30;;;;;;;77.20;25.85;;;;;;;-1.94;100.00;100213.77;4943522;58;1143077;-74
2023/12/02 21:49:36;;;;;;;56.70;22.13;;;;;;;-1.99;100.00;100215.68;4913773;59;1143174;-74
2023/12/02 21:54:41;;;;;;;52.17;19.73;;;;;;;-2.04;100.00;100221.44;4893807;59;1143211;-74
2023/12/02 21:59:49;;;;;;;66.10;25.63;;;;;;;-2.13;100.00;100230.77;4866985;59;1142934;-77
2023/12/02 22:04:55;;;;;;;70.27;25.20;;;;;;;-2.19;100.00;100243.48;4837144;58;1142965;-74
2023/12/02 22:10:02;;;;;;;55.13;20.00;;;;;;;-2.19;100.00;100253.00;4887163;59;1142960;-75
2023/12/02 22:15:18;;;;;;;49.98;19.73;;;;;;;-2.20;100.00;100261.66;4861817;59;1142754;-75
2023/12/02 22:20:27;;;;;;;43.70;17.80;;;;;;;-2.25;100.00;100264.82;4894043;59;1143049;-75
2023/12/02 22:25:33;;;;;;;56.80;18.97;;;;;;;-2.33;100.00;100274.13;4913974;59;1142712;-77
2023/12/02 22:30:46;;;;;;;56.23;19.70;;;;;;;-2.34;100.00;100280.19;4894526;59;1143074;-73
2023/12/02 22:36:04;;;;;;;56.28;20.40;;;;;;;-2.37;100.00;100279.42;4946124;58;1143055;-77
2023/12/02 22:41:14;;;;;;;50.97;20.63;;;;;;;-2.40;100.00;100281.66;4992903;58;1142924;-75
2023/12/02 22:46:24;;;;;;;49.23;17.43;;;;;;;-2.39;100.00;100282.05;4920066;58;1142837;-75